Shinpu Maru — JD3456 — position and weather

sailwx.info

Track history (hours):
 
Tides and Currents Weather Stations Pressure Air Temp Water Temp Dewpoint Dewpoint Depression Visibility Wind Speed Wind Dir Waves Ship Positions

Shinpu Maru

Last reported at 2018-Jul-20 09:14 UTC. Time now 2018-Jul-21 07:58 UTC.
Position N 35°32' E 139°53'.

Length 71 m; draft 4.5 m.

Type: Tanker. MMSI: 431004247.

Date/timePositionNaut miles runAvg speedWind from/ knotsBaromVisibWave heightAir tempDewpointWater temp
2018-Jul-20 09:14N 35°32' E 139°53'313.3
2018-Jul-20 09:00N 35°30' E 139°49'510.8
2018-Jul-20 08:31N 35°29' E 139°43'0 0.1
2018-Jul-20 08:00N 35°29' E 139°43'0 0.0
2018-Jul-20 07:30N 35°29' E 139°43'0 0.0
2018-Jul-20 07:00N 35°29' E 139°43'0 0.0
2018-Jul-20 06:30N 35°29' E 139°43'0 0.0
2018-Jul-20 06:00N 35°29' E 139°43'0 0.0
2018-Jul-20 05:30N 35°29' E 139°43'0 0.0
2018-Jul-20 05:00N 35°29' E 139°43'0 0.0
2018-Jul-20 04:30N 35°29' E 139°43'0 0.0
2018-Jul-20 04:00N 35°29' E 139°43'0 0.0
2018-Jul-20 03:30N 35°29' E 139°43'0 0.0
2018-Jul-20 03:00N 35°29' E 139°43'0 0.5
2018-Jul-20 02:30N 35°29' E 139°43'511.0
2018-Jul-20 02:00N 35°31' E 139°50'1311.9
2018-Jul-20 00:57N 35°33' E 140°05'0 0.0
2018-Jul-19 23:03N 35°33' E 140°05'7 0.7
2018-Jul-19 12:56N 35°32' E 139°57'612.7
2018-Jul-19 12:30N 35°28' E 139°51'712.9
2018-Jul-19 12:00N 35°23' E 139°46'612.2
2018-Jul-19 11:30N 35°17' E 139°45'612.5
2018-Jul-19 11:00N 35°11' E 139°47'612.7
2018-Jul-19 10:30N 35°05' E 139°45'612.8
2018-Jul-19 10:00N 35°01' E 139°39'713.8
2018-Jul-19 09:30N 34°57' E 139°32'23111.4
2018-Jul-18 13:13N 33°51' E 135°04'312.3
2018-Jul-18 13:00N 33°53' E 135°02'612.5
2018-Jul-18 12:30N 33°57' E 134°57'612.2
2018-Jul-18 11:59N 34°02' E 134°51'712.8
2018-Jul-18 11:28N 34°07' E 134°46'1412.4
2018-Jul-18 10:21N 34°17' E 134°35'412.3
2018-Jul-18 10:00N 34°19' E 134°31'712.8
2018-Jul-18 09:29N 34°21' E 134°23'613.0
2018-Jul-18 09:00N 34°23' E 134°16'  
2018-Jul-15 14:00N 34°26' E 133°58'1214.4
2018-Jul-15 13:11N 34°25' E 134°12'314.7
2018-Jul-15 13:00N 34°24' E 134°15'714.0
2018-Jul-15 12:30N 34°23' E 134°23'713.3
2018-Jul-15 12:00N 34°20' E 134°31'914.0
2018-Jul-15 11:20N 34°14' E 134°39'714.1
2018-Jul-15 10:52N 34°09' E 134°44'513.3
2018-Jul-15 10:30N 34°05' E 134°48'713.1
2018-Jul-15 10:00N 34°00' E 134°53'613.1
2018-Jul-15 09:30N 33°56' E 134°58'713.8
2018-Jul-15 09:00N 33°50' E 135°04'22211.3
2018-Jul-14 13:21N 34°56' E 139°21'411.6
2018-Jul-14 12:58N 34°59' E 139°25'511.6
2018-Jul-14 12:30N 35°02' E 139°31'612.4
2018-Jul-14 12:00N 35°05' E 139°38'612.7
2018-Jul-14 11:30N 35°09' E 139°43'612.4
2018-Jul-14 11:00N 35°15' E 139°46'612.6
2018-Jul-14 10:30N 35°20' E 139°43'611.8
2018-Jul-14 10:00N 35°26' E 139°45'612.8
2018-Jul-14 09:30N 35°30' E 139°51'12 2.3
2018-Jul-14 04:08N 35°35' E 140°05'110.8
2018-Jul-14 04:00N 35°34' E 140°03'2 1.1
2018-Jul-14 01:56N 35°33' E 140°01'612.8
2018-Jul-14 01:29N 35°31' E 139°54'612.5
2018-Jul-14 01:00N 35°27' E 139°49'612.0
2018-Jul-14 00:30N 35°22' E 139°45'510.6
2018-Jul-14 00:00N 35°17' E 139°46'611.2
2018-Jul-13 23:30N 35°11' E 139°47'612.9
2018-Jul-13 23:00N 35°05' E 139°45'712.8
2018-Jul-13 22:30N 34°58' E 139°43'611.1
2018-Jul-13 22:00N 34°53' E 139°47'18 9.6
2018-Jul-13 20:08N 34°58' E 140°08'  
2018-Jul-10 11:35N 34°52' E 139°47'314.5
2018-Jul-10 11:24N 34°55' E 139°46'513.5
2018-Jul-10 11:00N 34°59' E 139°43'612.8
2018-Jul-10 10:30N 35°06' E 139°45'612.6
2018-Jul-10 10:00N 35°12' E 139°46'612.5
2018-Jul-10 09:30N 35°18' E 139°44'  
Track history (hours):
 
Tides and Currents Weather Stations Pressure Air Temp Water Temp Dewpoint Dewpoint Depression Visibility Wind Speed Wind Dir Waves Ship Positions

Shinpu Maru

Last reported at 2018-Jul-20 09:14 UTC. Time now 2018-Jul-21 07:58 UTC.
Position N 35°32' E 139°53'.

Length 71 m; draft 4.5 m.

Type: Tanker. MMSI: 431004247.

Date/timePositionNaut miles runAvg speedWind from/ knotsBaromVisibWave heightAir tempDewpointWater temp
2018-Jul-20 09:14N 35°32' E 139°53'313.3
2018-Jul-20 09:00N 35°30' E 139°49'510.8
2018-Jul-20 08:31N 35°29' E 139°43'0 0.1
2018-Jul-20 08:00N 35°29' E 139°43'0 0.0
2018-Jul-20 07:30N 35°29' E 139°43'0 0.0
2018-Jul-20 07:00N 35°29' E 139°43'0 0.0
2018-Jul-20 06:30N 35°29' E 139°43'0 0.0
2018-Jul-20 06:00N 35°29' E 139°43'0 0.0
2018-Jul-20 05:30N 35°29' E 139°43'0 0.0
2018-Jul-20 05:00N 35°29' E 139°43'0 0.0
2018-Jul-20 04:30N 35°29' E 139°43'0 0.0
2018-Jul-20 04:00N 35°29' E 139°43'0 0.0
2018-Jul-20 03:30N 35°29' E 139°43'0 0.0
2018-Jul-20 03:00N 35°29' E 139°43'0 0.5
2018-Jul-20 02:30N 35°29' E 139°43'511.0
2018-Jul-20 02:00N 35°31' E 139°50'1311.9
2018-Jul-20 00:57N 35°33' E 140°05'0 0.0
2018-Jul-19 23:03N 35°33' E 140°05'7 0.7
2018-Jul-19 12:56N 35°32' E 139°57'612.7
2018-Jul-19 12:30N 35°28' E 139°51'712.9
2018-Jul-19 12:00N 35°23' E 139°46'612.2
2018-Jul-19 11:30N 35°17' E 139°45'612.5
2018-Jul-19 11:00N 35°11' E 139°47'612.7
2018-Jul-19 10:30N 35°05' E 139°45'612.8
2018-Jul-19 10:00N 35°01' E 139°39'713.8
2018-Jul-19 09:30N 34°57' E 139°32'23111.4
2018-Jul-18 13:13N 33°51' E 135°04'312.3
2018-Jul-18 13:00N 33°53' E 135°02'612.5
2018-Jul-18 12:30N 33°57' E 134°57'612.2
2018-Jul-18 11:59N 34°02' E 134°51'712.8
2018-Jul-18 11:28N 34°07' E 134°46'1412.4
2018-Jul-18 10:21N 34°17' E 134°35'412.3
2018-Jul-18 10:00N 34°19' E 134°31'712.8
2018-Jul-18 09:29N 34°21' E 134°23'613.0
2018-Jul-18 09:00N 34°23' E 134°16'  
2018-Jul-15 14:00N 34°26' E 133°58'1214.4
2018-Jul-15 13:11N 34°25' E 134°12'314.7
2018-Jul-15 13:00N 34°24' E 134°15'714.0
2018-Jul-15 12:30N 34°23' E 134°23'713.3
2018-Jul-15 12:00N 34°20' E 134°31'914.0
2018-Jul-15 11:20N 34°14' E 134°39'714.1
2018-Jul-15 10:52N 34°09' E 134°44'513.3
2018-Jul-15 10:30N 34°05' E 134°48'713.1
2018-Jul-15 10:00N 34°00' E 134°53'613.1
2018-Jul-15 09:30N 33°56' E 134°58'713.8
2018-Jul-15 09:00N 33°50' E 135°04'22211.3
2018-Jul-14 13:21N 34°56' E 139°21'411.6
2018-Jul-14 12:58N 34°59' E 139°25'511.6
2018-Jul-14 12:30N 35°02' E 139°31'612.4
2018-Jul-14 12:00N 35°05' E 139°38'612.7
2018-Jul-14 11:30N 35°09' E 139°43'612.4
2018-Jul-14 11:00N 35°15' E 139°46'612.6
2018-Jul-14 10:30N 35°20' E 139°43'611.8
2018-Jul-14 10:00N 35°26' E 139°45'612.8
2018-Jul-14 09:30N 35°30' E 139°51'12 2.3
2018-Jul-14 04:08N 35°35' E 140°05'110.8
2018-Jul-14 04:00N 35°34' E 140°03'2 1.1
2018-Jul-14 01:56N 35°33' E 140°01'612.8
2018-Jul-14 01:29N 35°31' E 139°54'612.5
2018-Jul-14 01:00N 35°27' E 139°49'612.0
2018-Jul-14 00:30N 35°22' E 139°45'510.6
2018-Jul-14 00:00N 35°17' E 139°46'611.2
2018-Jul-13 23:30N 35°11' E 139°47'612.9
2018-Jul-13 23:00N 35°05' E 139°45'712.8
2018-Jul-13 22:30N 34°58' E 139°43'611.1
2018-Jul-13 22:00N 34°53' E 139°47'18 9.6
2018-Jul-13 20:08N 34°58' E 140°08'  
2018-Jul-10 11:35N 34°52' E 139°47'314.5
2018-Jul-10 11:24N 34°55' E 139°46'513.5
2018-Jul-10 11:00N 34°59' E 139°43'612.8
2018-Jul-10 10:30N 35°06' E 139°45'612.6
2018-Jul-10 10:00N 35°12' E 139°46'612.5
2018-Jul-10 09:30N 35°18' E 139°44'  

Dump ship's entire track history